Wetterdaten: Sonntag, 12.06.2016
Datum Zeit Auen-Temp. Temp gefhlt Luftfeuchte Luftdruck Regen Wind Richtung Richtung Sonnenschein Taupunkt Windben
12.06.2016 00:00 12,3 C 12,1 C 75 % 1013,6 hPa 0,0 mm 6,6 km/h (2 Bft) S 180 0 min 8,0 C 9,8 km/h (2 Bft)
12.06.2016 00:05 12,3 C 12,2 C 75 % 1013,6 hPa 0,0 mm 8,0 km/h (2 Bft) SW 225 0 min 8,0 C 10,1 km/h (2 Bft)
12.06.2016 00:10 12,3 C 12,2 C 75 % 1013,6 hPa 0,0 mm 8,0 km/h (2 Bft) S-SW 202 0 min 8,0 C 5,7 km/h (1 Bft)
12.06.2016 00:15 12,3 C 12,2 C 75 % 1013,5 hPa 0,0 mm 7,2 km/h (2 Bft) SW 225 0 min 8,0 C 12,8 km/h (3 Bft)
12.06.2016 00:20 12,3 C 12,3 C 75 % 1013,5 hPa 0,0 mm 6,6 km/h (2 Bft) S 180 0 min 8,0 C 10,4 km/h (2 Bft)
12.06.2016 00:25 12,5 C 12,5 C 74 % 1013,5 hPa 0,0 mm 7,2 km/h (2 Bft) W 270 0 min 8,0 C 14,0 km/h (3 Bft)
12.06.2016 00:30 12,6 C 12,6 C 74 % 1013,5 hPa 0,0 mm 7,7 km/h (2 Bft) S 180 0 min 8,1 C 11,9 km/h (2 Bft)
12.06.2016 00:35 12,7 C 12,8 C 73 % 1013,5 hPa 0,0 mm 7,5 km/h (2 Bft) S-SW 202 0 min 8,0 C 16,1 km/h (3 Bft)
12.06.2016 00:40 12,8 C 12,9 C 73 % 1013,5 hPa 0,0 mm 7,7 km/h (2 Bft) W-SW 247 0 min 8,1 C 7,5 km/h (2 Bft)
12.06.2016 00:45 12,8 C 12,9 C 73 % 1013,5 hPa 0,0 mm 8,3 km/h (2 Bft) W-SW 247 0 min 8,1 C 8,3 km/h (2 Bft)
12.06.2016 00:50 12,7 C 12,7 C 73 % 1013,5 hPa 0,0 mm 6,3 km/h (2 Bft) S-SW 202 0 min 8,0 C 12,8 km/h (3 Bft)
12.06.2016 00:55 12,6 C 12,5 C 73 % 1013,4 hPa 0,0 mm 3,9 km/h (1 Bft) S 180 0 min 7,9 C 0,0 km/h (0 Bft)
12.06.2016 01:00 12,5 C 12,3 C 73 % 1013,4 hPa 0,0 mm 4,2 km/h (1 Bft) S-SW 202 0 min 7,8 C 8,3 km/h (2 Bft)
12.06.2016 01:05 12,4 C 12,1 C 73 % 1013,4 hPa 0,0 mm 4,5 km/h (1 Bft) W-NW 292 0 min 7,7 C 3,0 km/h (1 Bft)
12.06.2016 01:10 12,2 C 12,0 C 73 % 1013,4 hPa 0,0 mm 5,7 km/h (1 Bft) W-SW 247 0 min 7,5 C 5,4 km/h (1 Bft)
12.06.2016 01:15 12,1 C 11,9 C 73 % 1013,4 hPa 0,0 mm 5,1 km/h (1 Bft) W-SW 247 0 min 7,4 C 3,9 km/h (1 Bft)
12.06.2016 01:20 12,1 C 12,0 C 73 % 1013,4 hPa 0,0 mm 4,5 km/h (1 Bft) SW 225 0 min 7,4 C 7,5 km/h (2 Bft)
12.06.2016 01:25 12,0 C 11,8 C 74 % 1013,4 hPa 0,0 mm 4,5 km/h (1 Bft) S-SW 202 0 min 7,5 C 8,9 km/h (2 Bft)
12.06.2016 01:30 11,9 C 11,6 C 74 % 1013,4 hPa 0,0 mm 4,5 km/h (1 Bft) O-NO 67 0 min 7,4 C 10,4 km/h (2 Bft)
12.06.2016 01:35 11,7 C 11,3 C 75 % 1013,4 hPa 0,0 mm 3,9 km/h (1 Bft) S-SW 202 0 min 7,4 C 0,0 km/h (0 Bft)
12.06.2016 01:40 11,6 C 11,1 C 75 % 1013,4 hPa 0,0 mm 1,8 km/h (1 Bft) NW 315 0 min 7,3 C 0,0 km/h (0 Bft)
12.06.2016 01:45 11,4 C 10,9 C 76 % 1013,4 hPa 0,0 mm 0,0 km/h (0 Bft) S 180 0 min 7,3 C 0,0 km/h (0 Bft)
12.06.2016 01:50 11,2 C 10,7 C 76 % 1013,4 hPa 0,0 mm 0,3 km/h (0 Bft) SO 135 0 min 7,1 C 0,0 km/h (0 Bft)
12.06.2016 01:55 11,1 C 10,6 C 77 % 1013,4 hPa 0,0 mm 1,2 km/h (1 Bft) O-SO 112 0 min 7,2 C 0,0 km/h (0 Bft)
12.06.2016 02:00 11,1 C 10,6 C 78 % 1013,4 hPa 0,0 mm 2,1 km/h (1 Bft) S 180 0 min 7,4 C 8,3 km/h (2 Bft)
12.06.2016 02:05 11,0 C 10,5 C 78 % 1013,4 hPa 0,0 mm 2,1 km/h (1 Bft) S 180 0 min 7,3 C 8,3 km/h (2 Bft)
12.06.2016 02:10 10,9 C 10,4 C 78 % 1013,4 hPa 0,0 mm 2,1 km/h (1 Bft) S 180 0 min 7,2 C 8,3 km/h (2 Bft)
12.06.2016 02:15 10,8 C 10,4 C 79 % 1013,2 hPa 0,0 mm 0,0 km/h (0 Bft) S 180 0 min 7,3 C 0,0 km/h (0 Bft)
12.06.2016 02:20 10,8 C 10,4 C 79 % 1013,2 hPa 0,0 mm 0,0 km/h (0 Bft) S 180 0 min 7,3 C 0,0 km/h (0 Bft)
12.06.2016 02:25 10,7 C 10,4 C 79 % 1013,2 hPa 0,0 mm 0,0 km/h (0 Bft) S 180 0 min 7,2 C 0,0 km/h (0 Bft)
12.06.2016 02:30 10,6 C 10,2 C 79 % 1013,2 hPa 0,0 mm 0,0 km/h (0 Bft) S 180 0 min 7,1 C 0,0 km/h (0 Bft)
12.06.2016 02:35 10,4 C 10,2 C 79 % 1013,2 hPa 0,0 mm 0,0 km/h (0 Bft) S 180 0 min 6,9 C 0,0 km/h (0 Bft)
12.06.2016 02:40 10,5 C 10,3 C 80 % 1013,2 hPa 0,0 mm 0,0 km/h (0 Bft) S 180 0 min 7,2 C 0,0 km/h (0 Bft)
12.06.2016 02:45 10,6 C 10,4 C 80 % 1013,2 hPa 0,0 mm 0,0 km/h (0 Bft) S 180 0 min 7,3 C 0,0 km/h (0 Bft)
12.06.2016 02:46 10,5 C 10,3 C 80 % 1013,2 hPa 0,0 mm 0,0 km/h (0 Bft) S 180 0 min 7,2 C 0,0 km/h (0 Bft)
12.06.2016 02:51 10,5 C 10,3 C 80 % 1013,2 hPa 0,0 mm 0,0 km/h (0 Bft) S 180 0 min 7,2 C 0,0 km/h (0 Bft)
12.06.2016 02:55 10,5 C 10,3 C 81 % 1013,1 hPa 0,0 mm 0,0 km/h (0 Bft) S 180 0 min 7,4 C 0,0 km/h (0 Bft)
12.06.2016 03:00 10,4 C 10,2 C 81 % 1013,1 hPa 0,0 mm 0,0 km/h (0 Bft) S 180 0 min 7,3 C 0,0 km/h (0 Bft)
12.06.2016 03:05 10,5 C 10,4 C 81 % 1013,1 hPa 0,0 mm 0,0 km/h (0 Bft) S 180 0 min 7,4 C 0,0 km/h (0 Bft)
12.06.2016 03:10 10,5 C 10,4 C 81 % 1013,1 hPa 0,0 mm 0,0 km/h (0 Bft) S 180 0 min 7,4 C 0,0 km/h (0 Bft)
12.06.2016 03:15 10,5 C 10,3 C 81 % 1013,0 hPa 0,7 mm 0,0 km/h (0 Bft) S 180 0 min 7,4 C 0,0 km/h (0 Bft)
12.06.2016 03:20 10,5 C 10,3 C 82 % 1013,0 hPa 0,0 mm 0,0 km/h (0 Bft) S 180 0 min 7,6 C 0,0 km/h (0 Bft)
12.06.2016 03:25 10,7 C 10,4 C 82 % 1013,0 hPa 0,0 mm 0,0 km/h (0 Bft) S 180 0 min 7,8 C 0,0 km/h (0 Bft)
12.06.2016 03:30 10,7 C 10,4 C 82 % 1013,0 hPa 0,0 mm 0,0 km/h (0 Bft) S 180 0 min 7,8 C 0,0 km/h (0 Bft)
12.06.2016 03:35 10,7 C 10,4 C 83 % 1012,8 hPa 0,0 mm 0,0 km/h (0 Bft) S 180 0 min 7,9 C 0,0 km/h (0 Bft)
12.06.2016 03:40 10,7 C 10,4 C 83 % 1012,8 hPa 0,0 mm 0,0 km/h (0 Bft) S 180 0 min 7,9 C 0,0 km/h (0 Bft)
12.06.2016 03:45 10,7 C 10,4 C 83 % 1012,8 hPa 0,0 mm 0,0 km/h (0 Bft) S 180 0 min 7,9 C 0,0 km/h (0 Bft)
12.06.2016 03:50 10,7 C 10,4 C 83 % 1012,8 hPa 0,0 mm 0,0 km/h (0 Bft) S 180 0 min 7,9 C 0,0 km/h (0 Bft)
12.06.2016 03:55 10,7 C 10,4 C 83 % 1012,6 hPa 0,0 mm 0,0 km/h (0 Bft) S 180 0 min 7,9 C 0,0 km/h (0 Bft)
12.06.2016 04:00 10,7 C 10,4 C 83 % 1012,6 hPa 0,0 mm 0,0 km/h (0 Bft) S 180 0 min 7,9 C 0,0 km/h (0 Bft)
12.06.2016 04:05 10,7 C 10,4 C 83 % 1012,6 hPa 0,0 mm 0,0 km/h (0 Bft) S 180 0 min 7,9 C 0,0 km/h (0 Bft)
12.06.2016 04:10 10,7 C 10,4 C 83 % 1012,6 hPa 0,0 mm 0,0 km/h (0 Bft) S 180 0 min 7,9 C 0,0 km/h (0 Bft)
12.06.2016 04:15 10,7 C 10,4 C 84 % 1012,4 hPa 0,0 mm 0,0 km/h (0 Bft) S 180 0 min 8,1 C 0,0 km/h (0 Bft)
12.06.2016 04:20 10,7 C 10,4 C 84 % 1012,4 hPa 0,0 mm 0,0 km/h (0 Bft) S 180 0 min 8,1 C 0,0 km/h (0 Bft)
12.06.2016 04:25 10,7 C 10,4 C 84 % 1012,4 hPa 0,0 mm 0,0 km/h (0 Bft) S 180 0 min 8,1 C 0,0 km/h (0 Bft)
12.06.2016 04:30 10,7 C 10,4 C 84 % 1012,4 hPa 0,0 mm 0,0 km/h (0 Bft) S 180 0 min 8,1 C 0,0 km/h (0 Bft)
12.06.2016 04:35 10,6 C 10,4 C 84 % 1012,4 hPa 0,0 mm 0,0 km/h (0 Bft) S 180 0 min 8,0 C 0,0 km/h (0 Bft)
12.06.2016 04:40 10,6 C 10,4 C 84 % 1012,4 hPa 0,0 mm 0,0 km/h (0 Bft) S 180 0 min 8,0 C 0,0 km/h (0 Bft)
12.06.2016 04:45 10,6 C 10,4 C 84 % 1012,4 hPa 0,0 mm 0,0 km/h (0 Bft) S 180 0 min 8,0 C 0,0 km/h (0 Bft)
12.06.2016 04:50 10,6 C 10,4 C 84 % 1012,4 hPa 0,0 mm 0,0 km/h (0 Bft) S 180 0 min 8,0 C 0,0 km/h (0 Bft)
12.06.2016 04:55 10,7 C 10,4 C 84 % 1012,4 hPa 0,0 mm 0,0 km/h (0 Bft) S 180 0 min 8,1 C 0,0 km/h (0 Bft)
12.06.2016 05:00 10,7 C 10,4 C 84 % 1012,4 hPa 0,0 mm 0,0 km/h (0 Bft) S 180 0 min 8,1 C 0,0 km/h (0 Bft)
12.06.2016 05:05 10,7 C 10,4 C 84 % 1012,4 hPa 0,0 mm 0,0 km/h (0 Bft) S 180 0 min 8,1 C 0,0 km/h (0 Bft)
12.06.2016 05:10 10,7 C 10,4 C 84 % 1012,4 hPa 0,0 mm 0,0 km/h (0 Bft) S 180 0 min 8,1 C 0,0 km/h (0 Bft)
12.06.2016 05:15 10,6 C 10,4 C 84 % 1012,4 hPa 0,0 mm 0,0 km/h (0 Bft) S 180 0 min 8,0 C 0,0 km/h (0 Bft)
12.06.2016 05:20 10,6 C 10,4 C 84 % 1012,4 hPa 0,0 mm 0,0 km/h (0 Bft) S 180 0 min 8,0 C 0,0 km/h (0 Bft)
12.06.2016 05:25 10,6 C 10,4 C 85 % 1012,4 hPa 0,0 mm 0,0 km/h (0 Bft) S 180 0 min 8,2 C 0,0 km/h (0 Bft)
12.06.2016 05:30 10,6 C 10,4 C 85 % 1012,4 hPa 0,0 mm 0,0 km/h (0 Bft) S 180 0 min 8,2 C 0,0 km/h (0 Bft)
12.06.2016 05:35 10,6 C 10,4 C 85 % 1012,5 hPa 0,0 mm 0,0 km/h (0 Bft) S 180 0 min 8,2 C 0,0 km/h (0 Bft)
12.06.2016 05:40 10,6 C 10,4 C 85 % 1012,5 hPa 0,0 mm 0,0 km/h (0 Bft) S 180 0 min 8,2 C 0,0 km/h (0 Bft)
12.06.2016 05:45 10,7 C 10,4 C 85 % 1012,5 hPa 0,0 mm 0,0 km/h (0 Bft) S 180 0 min 8,3 C 0,0 km/h (0 Bft)
12.06.2016 05:50 10,7 C 10,4 C 85 % 1012,5 hPa 0,0 mm 0,0 km/h (0 Bft) S 180 0 min 8,3 C 0,0 km/h (0 Bft)
12.06.2016 05:52 10,7 C 7,2 C 85 % 1012,6 hPa 0,0 mm 0,0 km/h (0 Bft) S 180 0 min 8,3 C 0,0 km/h (0 Bft)
12.06.2016 05:55 10,7 C 7,2 C 85 % 1012,6 hPa 0,0 mm 0,0 km/h (0 Bft) S 180 0 min 8,3 C 0,0 km/h (0 Bft)
12.06.2016 06:00 10,7 C 7,2 C 85 % 1012,6 hPa 0,0 mm 0,0 km/h (0 Bft) S 180 0 min 8,3 C 0,0 km/h (0 Bft)
12.06.2016 06:05 10,8 C 7,3 C 85 % 1012,6 hPa 0,0 mm 0,0 km/h (0 Bft) S 180 0 min 8,4 C 0,0 km/h (0 Bft)
12.06.2016 06:10 10,8 C 7,3 C 85 % 1012,6 hPa 0,0 mm 0,0 km/h (0 Bft) S 180 0 min 8,4 C 0,0 km/h (0 Bft)
12.06.2016 06:15 11,0 C 7,4 C 85 % 1012,8 hPa 0,0 mm 0,0 km/h (0 Bft) S 180 0 min 8,6 C 0,0 km/h (0 Bft)
12.06.2016 06:20 11,1 C 7,5 C 85 % 1012,8 hPa 0,0 mm 0,0 km/h (0 Bft) S 180 0 min 8,7 C 0,0 km/h (0 Bft)
12.06.2016 06:25 11,1 C 7,5 C 85 % 1012,8 hPa 0,0 mm 0,0 km/h (0 Bft) S 180 0 min 8,7 C 0,0 km/h (0 Bft)
12.06.2016 06:30 11,3 C 7,6 C 85 % 1012,8 hPa 0,0 mm 0,0 km/h (0 Bft) S 180 0 min 8,9 C 0,0 km/h (0 Bft)
12.06.2016 06:35 11,3 C 7,6 C 85 % 1012,9 hPa 0,0 mm 0,0 km/h (0 Bft) S 180 0 min 8,9 C 0,0 km/h (0 Bft)
12.06.2016 06:40 11,3 C 7,6 C 85 % 1012,9 hPa 0,0 mm 0,0 km/h (0 Bft) S 180 0 min 8,9 C 0,0 km/h (0 Bft)
12.06.2016 06:45 11,3 C 7,6 C 84 % 1012,9 hPa 0,0 mm 0,0 km/h (0 Bft) S 180 0 min 8,7 C 0,0 km/h (0 Bft)
12.06.2016 06:50 11,3 C 7,6 C 84 % 1012,9 hPa 0,0 mm 0,0 km/h (0 Bft) S 180 0 min 8,7 C 0,0 km/h (0 Bft)
12.06.2016 06:55 11,3 C 7,7 C 84 % 1012,7 hPa 0,0 mm 0,0 km/h (0 Bft) S 180 0 min 8,7 C 0,0 km/h (0 Bft)
12.06.2016 07:00 11,4 C 7,7 C 84 % 1012,7 hPa 0,0 mm 0,0 km/h (0 Bft) S 180 0 min 8,8 C 0,0 km/h (0 Bft)
12.06.2016 07:05 11,6 C 7,9 C 84 % 1012,7 hPa 0,0 mm 0,0 km/h (0 Bft) S 180 0 min 9,0 C 0,0 km/h (0 Bft)
12.06.2016 07:10 11,7 C 8,0 C 84 % 1012,7 hPa 0,0 mm 0,0 km/h (0 Bft) S 180 0 min 9,1 C 0,0 km/h (0 Bft)
12.06.2016 07:15 11,9 C 8,1 C 84 % 1012,8 hPa 0,0 mm 0,0 km/h (0 Bft) S 180 0 min 9,3 C 0,0 km/h (0 Bft)
12.06.2016 07:20 12,1 C 8,3 C 84 % 1012,8 hPa 0,0 mm 0,0 km/h (0 Bft) S 180 0 min 9,5 C 0,0 km/h (0 Bft)
12.06.2016 07:25 12,2 C 8,3 C 84 % 1012,8 hPa 0,0 mm 0,0 km/h (0 Bft) S 180 0 min 9,6 C 0,0 km/h (0 Bft)
12.06.2016 07:30 12,2 C 8,3 C 83 % 1012,8 hPa 0,0 mm 0,0 km/h (0 Bft) S 180 0 min 9,4 C 0,0 km/h (0 Bft)
12.06.2016 07:35 12,2 C 8,3 C 83 % 1012,7 hPa 0,0 mm 0,0 km/h (0 Bft) S 180 0 min 9,4 C 0,0 km/h (0 Bft)
12.06.2016 07:40 12,2 C 8,3 C 83 % 1012,7 hPa 0,0 mm 0,0 km/h (0 Bft) S 180 0 min 9,4 C 0,0 km/h (0 Bft)
12.06.2016 07:45 12,3 C 8,4 C 83 % 1012,7 hPa 0,0 mm 0,0 km/h (0 Bft) S 180 0 min 9,5 C 0,0 km/h (0 Bft)
12.06.2016 07:50 12,4 C 8,4 C 83 % 1012,7 hPa 0,0 mm 0,0 km/h (0 Bft) S 180 0 min 9,6 C 0,0 km/h (0 Bft)
12.06.2016 07:55 12,4 C 8,3 C 83 % 1012,7 hPa 0,0 mm 0,0 km/h (0 Bft) S 180 0 min 9,6 C 0,0 km/h (0 Bft)
12.06.2016 08:00 12,3 C 8,4 C 83 % 1012,7 hPa 0,0 mm 0,0 km/h (0 Bft) S 180 0 min 9,5 C 0,0 km/h (0 Bft)
12.06.2016 08:05 12,4 C 8,5 C 83 % 1012,7 hPa 0,0 mm 0,0 km/h (0 Bft) S 180 0 min 9,6 C 0,0 km/h (0 Bft)
12.06.2016 08:10 12,5 C 8,6 C 83 % 1012,7 hPa 0,0 mm 0,0 km/h (0 Bft) S 180 0 min 9,7 C 0,0 km/h (0 Bft)
12.06.2016 08:15 12,7 C 8,8 C 83 % 1012,6 hPa 0,0 mm 0,0 km/h (0 Bft) S 180 0 min 9,9 C 0,0 km/h (0 Bft)
12.06.2016 08:20 12,9 C 8,9 C 83 % 1012,6 hPa 0,0 mm 0,0 km/h (0 Bft) S 180 0 min 10,1 C 0,0 km/h (0 Bft)
12.06.2016 08:25 13,0 C 9,1 C 82 % 1012,6 hPa 0,0 mm 0,0 km/h (0 Bft) S 180 0 min 10,0 C 0,0 km/h (0 Bft)
12.06.2016 08:30 13,2 C 9,3 C 82 % 1012,6 hPa 0,0 mm 0,0 km/h (0 Bft) S 180 0 min 10,2 C 0,0 km/h (0 Bft)
12.06.2016 08:35 13,6 C 9,5 C 82 % 1012,6 hPa 0,0 mm 0,0 km/h (0 Bft) S 180 0 min 10,6 C 0,0 km/h (0 Bft)
12.06.2016 08:40 13,9 C 9,7 C 82 % 1012,6 hPa 0,0 mm 0,0 km/h (0 Bft) S 180 0 min 10,9 C 0,0 km/h (0 Bft)
12.06.2016 08:45 14,3 C 10,0 C 81 % 1012,6 hPa 0,0 mm 0,0 km/h (0 Bft) S 180 0 min 11,1 C 0,0 km/h (0 Bft)
12.06.2016 08:50 14,5 C 10,1 C 80 % 1012,6 hPa 0,0 mm 0,0 km/h (0 Bft) S 180 0 min 11,1 C 0,0 km/h (0 Bft)
12.06.2016 08:51 15,0 C 10,6 C 79 % 1012,8 hPa 0,0 mm 0,0 km/h (0 Bft) S 180 0 min 11,4 C 0,0 km/h (0 Bft)
12.06.2016 08:53 15,0 C 10,6 C 79 % 1012,8 hPa 0,0 mm 0,0 km/h (0 Bft) S 180 0 min 11,4 C 0,0 km/h (0 Bft)
12.06.2016 08:55 15,0 C 10,6 C 79 % 1012,8 hPa 0,0 mm 0,0 km/h (0 Bft) S 180 0 min 11,4 C 0,0 km/h (0 Bft)
12.06.2016 09:00 15,6 C 11,0 C 78 % 1012,8 hPa 0,0 mm 0,0 km/h (0 Bft) S 180 0 min 11,8 C 0,0 km/h (0 Bft)
12.06.2016 09:05 15,4 C 10,7 C 77 % 1012,8 hPa 0,0 mm 0,0 km/h (0 Bft) S 180 0 min 11,4 C 0,0 km/h (0 Bft)
12.06.2016 09:10 15,2 C 10,5 C 76 % 1012,8 hPa 0,0 mm 0,0 km/h (0 Bft) S 180 0 min 11,0 C 0,0 km/h (0 Bft)
12.06.2016 09:15 15,4 C 10,6 C 76 % 1012,9 hPa 0,0 mm 0,0 km/h (0 Bft) S 180 0 min 11,2 C 0,0 km/h (0 Bft)
12.06.2016 09:20 15,5 C 10,7 C 75 % 1012,9 hPa 0,0 mm 0,0 km/h (0 Bft) S 180 0 min 11,1 C 0,0 km/h (0 Bft)
12.06.2016 09:25 15,3 C 10,5 C 75 % 1012,9 hPa 0,0 mm 0,0 km/h (0 Bft) S 180 0 min 10,9 C 0,0 km/h (0 Bft)
12.06.2016 09:30 15,3 C 10,5 C 75 % 1012,9 hPa 0,0 mm 0,0 km/h (0 Bft) S 180 0 min 10,9 C 0,0 km/h (0 Bft)
12.06.2016 09:35 15,1 C 10,3 C 74 % 1013,1 hPa 0,0 mm 0,0 km/h (0 Bft) S 180 0 min 10,5 C 0,0 km/h (0 Bft)
12.06.2016 09:40 15,1 C 10,3 C 75 % 1013,1 hPa 0,0 mm 0,0 km/h (0 Bft) S 180 0 min 10,7 C 0,0 km/h (0 Bft)
12.06.2016 09:45 15,0 C 10,3 C 74 % 1013,1 hPa 0,0 mm 0,0 km/h (0 Bft) S 180 0 min 10,4 C 0,0 km/h (0 Bft)
12.06.2016 09:50 15,0 C 10,3 C 74 % 1013,1 hPa 0,0 mm 0,0 km/h (0 Bft) S 180 0 min 10,4 C 0,0 km/h (0 Bft)
12.06.2016 09:55 15,0 C 10,3 C 73 % 1013,0 hPa 0,0 mm 0,0 km/h (0 Bft) S 180 0 min 10,2 C 0,0 km/h (0 Bft)
12.06.2016 10:00 14,9 C 10,2 C 73 % 1013,0 hPa 0,0 mm 0,0 km/h (0 Bft) S 180 0 min 10,1 C 0,0 km/h (0 Bft)
12.06.2016 10:05 15,0 C 10,3 C 73 % 1013,0 hPa 0,0 mm 0,0 km/h (0 Bft) S 180 0 min 10,2 C 0,0 km/h (0 Bft)
12.06.2016 10:10 15,1 C 10,5 C 73 % 1013,0 hPa 0,0 mm 0,0 km/h (0 Bft) S 180 0 min 10,3 C 0,0 km/h (0 Bft)
12.06.2016 10:15 15,4 C 10,7 C 73 % 1012,9 hPa 0,0 mm 0,0 km/h (0 Bft) S 180 0 min 10,6 C 0,0 km/h (0 Bft)
12.06.2016 10:20 15,7 C 10,9 C 73 % 1012,9 hPa 0,0 mm 0,0 km/h (0 Bft) S 180 0 min 10,9 C 0,0 km/h (0 Bft)
12.06.2016 10:25 15,9 C 11,1 C 71 % 1012,9 hPa 0,0 mm 0,0 km/h (0 Bft) S 180 0 min 10,6 C 0,0 km/h (0 Bft)
12.06.2016 10:30 16,1 C 11,3 C 70 % 1012,9 hPa 0,0 mm 0,0 km/h (0 Bft) S 180 0 min 10,6 C 0,0 km/h (0 Bft)
12.06.2016 10:35 16,1 C 11,2 C 69 % 1012,8 hPa 0,0 mm 0,0 km/h (0 Bft) S 180 0 min 10,4 C 0,0 km/h (0 Bft)
12.06.2016 10:40 16,4 C 11,5 C 69 % 1012,8 hPa 0,0 mm 0,0 km/h (0 Bft) S 180 0 min 10,7 C 0,0 km/h (0 Bft)
12.06.2016 10:45 16,6 C 11,7 C 69 % 1012,8 hPa 0,0 mm 0,0 km/h (0 Bft) S 180 0 min 10,9 C 0,0 km/h (0 Bft)
12.06.2016 10:50 16,6 C 20,2 C 67 % 1012,8 hPa 0,0 mm 6,9 km/h (2 Bft) W-SW 247 5 min 10,4 C 10,1 km/h (2 Bft)
12.06.2016 10:55 16,9 C 20,7 C 66 % 1012,5 hPa 0,0 mm 7,2 km/h (2 Bft) W 270 5 min 10,5 C 19,1 km/h (3 Bft)
12.06.2016 11:00 17,3 C 21,4 C 66 % 1012,5 hPa 0,0 mm 6,3 km/h (2 Bft) W 270 5 min 10,9 C 5,1 km/h (1 Bft)
12.06.2016 11:05 17,3 C 21,7 C 65 % 1012,5 hPa 0,0 mm 5,7 km/h (1 Bft) W-SW 247 5 min 10,7 C 13,7 km/h (3 Bft)
12.06.2016 11:10 17,3 C 21,7 C 65 % 1012,5 hPa 0,0 mm 6,0 km/h (2 Bft) NW 315 5 min 10,7 C 0,0 km/h (0 Bft)
12.06.2016 11:15 17,2 C 21,1 C 63 % 1012,9 hPa 0,0 mm 8,3 km/h (2 Bft) S 180 5 min 10,1 C 29,8 km/h (5 Bft)
12.06.2016 11:20 17,0 C 20,7 C 64 % 1012,9 hPa 0,0 mm 7,2 km/h (2 Bft) W 270 5 min 10,1 C 14,9 km/h (3 Bft)
12.06.2016 11:25 16,9 C 20,0 C 64 % 1012,9 hPa 0,0 mm 6,0 km/h (2 Bft) NW 315 5 min 10,0 C 4,8 km/h (1 Bft)
12.06.2016 11:30 16,8 C 19,8 C 64 % 1012,9 hPa 0,0 mm 7,5 km/h (2 Bft) W 270 5 min 10,0 C 8,0 km/h (2 Bft)
12.06.2016 11:35 16,8 C 19,4 C 64 % 1012,8 hPa 0,0 mm 7,2 km/h (2 Bft) NW 315 0 min 10,0 C 21,2 km/h (4 Bft)
12.06.2016 11:40 16,7 C 19,4 C 64 % 1012,8 hPa 0,0 mm 6,6 km/h (2 Bft) W 270 0 min 9,9 C 9,2 km/h (2 Bft)
12.06.2016 11:45 16,7 C 19,4 C 64 % 1012,8 hPa 0,0 mm 7,5 km/h (2 Bft) W 270 0 min 9,9 C 8,9 km/h (2 Bft)
12.06.2016 11:50 16,9 C 19,6 C 64 % 1012,8 hPa 0,0 mm 8,6 km/h (2 Bft) W-SW 247 0 min 10,0 C 14,3 km/h (3 Bft)
12.06.2016 11:51 17,4 C 20,6 C 63 % 1012,5 hPa 0,0 mm 6,9 km/h (2 Bft) W-SW 247 0 min 10,3 C 10,4 km/h (2 Bft)
12.06.2016 11:54 17,4 C 20,6 C 63 % 1012,5 hPa 0,0 mm 6,9 km/h (2 Bft) W-SW 247 0 min 10,3 C 10,4 km/h (2 Bft)
12.06.2016 11:55 17,4 C 20,6 C 63 % 1012,5 hPa 0,0 mm 6,9 km/h (2 Bft) W-SW 247 0 min 10,3 C 10,4 km/h (2 Bft)
12.06.2016 12:00 17,6 C 21,0 C 62 % 1012,5 hPa 0,0 mm 6,3 km/h (2 Bft) W 270 5 min 10,2 C 6,0 km/h (2 Bft)
12.06.2016 12:05 18,0 C 21,7 C 60 % 1012,5 hPa 0,0 mm 9,8 km/h (2 Bft) NW 315 5 min 10,1 C 21,8 km/h (4 Bft)
12.06.2016 12:10 18,3 C 22,2 C 60 % 1012,5 hPa 0,0 mm 9,5 km/h (2 Bft) W 270 0 min 10,4 C 11,6 km/h (2 Bft)
12.06.2016 12:15 18,9 C 24,0 C 59 % 1012,4 hPa 0,0 mm 10,4 km/h (2 Bft) S-SW 202 5 min 10,7 C 11,0 km/h (2 Bft)
12.06.2016 12:20 18,5 C 23,3 C 58 % 1012,4 hPa 0,0 mm 9,8 km/h (2 Bft) W 270 5 min 10,1 C 11,9 km/h (2 Bft)
12.06.2016 12:25 18,7 C 22,8 C 59 % 1012,4 hPa 0,0 mm 8,6 km/h (2 Bft) W-SW 247 5 min 10,5 C 8,9 km/h (2 Bft)
12.06.2016 12:30 19,2 C 23,3 C 58 % 1012,4 hPa 0,0 mm 6,0 km/h (2 Bft) W-NW 292 5 min 10,7 C 0,0 km/h (0 Bft)
12.06.2016 12:35 19,4 C 23,8 C 58 % 1012,6 hPa 0,0 mm 5,4 km/h (1 Bft) SW 225 5 min 10,9 C 32,2 km/h (5 Bft)
12.06.2016 12:40 18,9 C 23,2 C 57 % 1012,6 hPa 0,0 mm 7,7 km/h (2 Bft) W-SW 247 5 min 10,2 C 0,0 km/h (0 Bft)
12.06.2016 12:45 19,1 C 23,1 C 57 % 1012,6 hPa 0,0 mm 8,6 km/h (2 Bft) NW 315 5 min 10,4 C 37,3 km/h (5 Bft)
12.06.2016 12:50 18,9 C 23,1 C 56 % 1012,6 hPa 0,0 mm 7,5 km/h (2 Bft) N-NW 337 5 min 9,9 C 6,9 km/h (2 Bft)
12.06.2016 12:55 19,4 C 23,7 C 56 % 1012,4 hPa 0,0 mm 8,3 km/h (2 Bft) O-SO 112 0 min 10,4 C 10,1 km/h (2 Bft)
12.06.2016 13:00 19,3 C 24,0 C 55 % 1012,4 hPa 0,0 mm 10,4 km/h (2 Bft) NW 315 5 min 10,0 C 23,8 km/h (4 Bft)
12.06.2016 13:05 19,2 C 23,1 C 55 % 1012,4 hPa 0,0 mm 14,3 km/h (3 Bft) NW 315 5 min 9,9 C 23,8 km/h (4 Bft)
12.06.2016 13:10 19,6 C 23,5 C 56 % 1012,4 hPa 0,0 mm 12,5 km/h (3 Bft) W-SW 247 0 min 10,6 C 8,9 km/h (2 Bft)
12.06.2016 13:15 19,3 C 23,4 C 55 % 1012,3 hPa 0,0 mm 12,2 km/h (2 Bft) W 270 5 min 10,0 C 14,3 km/h (3 Bft)
12.06.2016 13:20 19,2 C 22,6 C 56 % 1012,3 hPa 0,0 mm 13,1 km/h (3 Bft) W-NW 292 0 min 10,2 C 18,5 km/h (3 Bft)
12.06.2016 13:25 19,5 C 23,1 C 56 % 1012,3 hPa 0,0 mm 12,2 km/h (2 Bft) N-NW 337 0 min 10,5 C 13,7 km/h (3 Bft)
12.06.2016 13:30 20,0 C 24,1 C 55 % 1012,3 hPa 0,0 mm 10,4 km/h (2 Bft) NW 315 5 min 10,7 C 15,5 km/h (3 Bft)
12.06.2016 13:35 20,1 C 24,6 C 56 % 1012,1 hPa 0,0 mm 9,5 km/h (2 Bft) SW 225 5 min 11,0 C 20,3 km/h (4 Bft)
12.06.2016 13:40 20,3 C 24,6 C 55 % 1012,1 hPa 0,0 mm 11,0 km/h (2 Bft) SO 135 5 min 11,0 C 24,7 km/h (4 Bft)
12.06.2016 13:45 20,1 C 24,7 C 53 % 1012,1 hPa 0,0 mm 13,7 km/h (3 Bft) W-NW 292 5 min 10,2 C 20,3 km/h (4 Bft)
12.06.2016 13:50 20,6 C 24,7 C 54 % 1012,1 hPa 0,0 mm 12,2 km/h (2 Bft) W-NW 292 0 min 11,0 C 10,7 km/h (2 Bft)
12.06.2016 13:55 20,1 C 25,1 C 54 % 1012,2 hPa 0,0 mm 15,8 km/h (3 Bft) W 270 5 min 10,5 C 28,9 km/h (5 Bft)
12.06.2016 14:00 19,2 C 23,5 C 55 % 1012,2 hPa 0,0 mm 18,5 km/h (3 Bft) W 270 5 min 9,9 C 15,2 km/h (3 Bft)
12.06.2016 14:05 18,5 C 21,8 C 56 % 1012,2 hPa 0,0 mm 17,3 km/h (3 Bft) W 270 5 min 9,6 C 30,7 km/h (5 Bft)
12.06.2016 14:10 18,5 C 21,3 C 57 % 1012,2 hPa 0,0 mm 17,9 km/h (3 Bft) W 270 0 min 9,8 C 33,4 km/h (5 Bft)
12.06.2016 14:15 18,5 C 21,2 C 57 % 1012,2 hPa 0,0 mm 17,9 km/h (3 Bft) W 270 0 min 9,8 C 17,3 km/h (3 Bft)
12.06.2016 14:20 18,3 C 20,9 C 57 % 1012,2 hPa 0,0 mm 16,7 km/h (3 Bft) W 270 0 min 9,6 C 15,5 km/h (3 Bft)
12.06.2016 14:25 18,1 C 20,6 C 57 % 1012,2 hPa 0,0 mm 16,7 km/h (3 Bft) NW 315 0 min 9,4 C 37,6 km/h (5 Bft)
12.06.2016 14:30 18,1 C 20,6 C 57 % 1012,2 hPa 0,0 mm 14,6 km/h (3 Bft) W-NW 292 0 min 9,4 C 16,7 km/h (3 Bft)
12.06.2016 14:35 18,8 C 21,8 C 58 % 1012,1 hPa 0,0 mm 12,8 km/h (3 Bft) W-NW 292 0 min 10,4 C 10,7 km/h (2 Bft)
12.06.2016 14:40 18,9 C 22,6 C 58 % 1012,1 hPa 0,0 mm 13,1 km/h (3 Bft) NW 315 5 min 10,5 C 22,7 km/h (4 Bft)
12.06.2016 14:45 18,5 C 21,6 C 59 % 1012,1 hPa 0,0 mm 15,5 km/h (3 Bft) N-NW 337 0 min 10,3 C 38,1 km/h (5 Bft)
12.06.2016 14:50 18,5 C 21,8 C 59 % 1012,1 hPa 0,0 mm 18,5 km/h (3 Bft) W-SW 247 0 min 10,3 C 34,6 km/h (5 Bft)
12.06.2016 14:51 18,3 C 22,3 C 58 % 1011,9 hPa 0,0 mm 19,4 km/h (3 Bft) W-NW 292 1 min 9,9 C 25,3 km/h (4 Bft)
12.06.2016 14:55 18,3 C 22,3 C 58 % 1011,9 hPa 0,0 mm 19,4 km/h (3 Bft) W-NW 292 4 min 9,9 C 25,3 km/h (4 Bft)
12.06.2016 15:00 18,2 C 22,0 C 59 % 1011,9 hPa 0,0 mm 21,5 km/h (4 Bft) W 270 0 min 10,1 C 26,8 km/h (4 Bft)
12.06.2016 15:05 18,4 C 22,0 C 59 % 1011,9 hPa 0,0 mm 20,0 km/h (4 Bft) W-NW 292 0 min 10,2 C 14,6 km/h (3 Bft)
12.06.2016 15:10 18,5 C 22,2 C 60 % 1011,9 hPa 0,0 mm 17,6 km/h (3 Bft) S-SW 202 0 min 10,6 C 17,9 km/h (3 Bft)
12.06.2016 15:15 18,6 C 22,9 C 59 % 1011,7 hPa 0,0 mm 18,8 km/h (3 Bft) W-SW 247 5 min 10,4 C 40,2 km/h (6 Bft)
12.06.2016 15:20 18,5 C 22,1 C 59 % 1011,7 hPa 0,0 mm 20,0 km/h (4 Bft) W-NW 292 0 min 10,3 C 15,5 km/h (3 Bft)
12.06.2016 15:25 19,2 C 23,7 C 59 % 1011,7 hPa 0,0 mm 19,1 km/h (3 Bft) S 180 5 min 11,0 C 51,3 km/h (7 Bft)
12.06.2016 15:30 18,7 C 23,1 C 59 % 1011,7 hPa 0,0 mm 17,0 km/h (3 Bft) NW 315 5 min 10,5 C 11,9 km/h (2 Bft)
12.06.2016 15:35 18,9 C 23,1 C 59 % 1011,9 hPa 0,0 mm 13,7 km/h (3 Bft) W 270 5 min 10,7 C 11,9 km/h (2 Bft)
12.06.2016 15:40 18,8 C 23,2 C 58 % 1011,9 hPa 0,0 mm 13,4 km/h (3 Bft) N-NO 22 5 min 10,4 C 20,9 km/h (4 Bft)
12.06.2016 15:45 18,0 C 21,9 C 58 % 1011,9 hPa 0,0 mm 15,5 km/h (3 Bft) W 270 5 min 9,6 C 21,8 km/h (4 Bft)
12.06.2016 15:50 17,7 C 20,9 C 60 % 1011,9 hPa 0,0 mm 14,0 km/h (3 Bft) W-NW 292 5 min 9,8 C 8,6 km/h (2 Bft)
12.06.2016 15:55 17,5 C 20,2 C 58 % 1011,9 hPa 0,0 mm 16,7 km/h (3 Bft) NW 315 0 min 9,1 C 22,1 km/h (4 Bft)
12.06.2016 16:00 17,6 C 20,6 C 58 % 1011,9 hPa 0,0 mm 18,5 km/h (3 Bft) O-NO 67 0 min 9,2 C 13,4 km/h (3 Bft)
12.06.2016 16:05 17,6 C 21,4 C 58 % 1011,9 hPa 0,0 mm 18,8 km/h (3 Bft) W-NW 292 5 min 9,2 C 27,7 km/h (4 Bft)
12.06.2016 16:10 17,4 C 21,4 C 57 % 1011,9 hPa 0,0 mm 21,5 km/h (4 Bft) NW 315 5 min 8,8 C 26,5 km/h (4 Bft)
12.06.2016 16:15 17,2 C 21,5 C 58 % 1011,8 hPa 0,0 mm 25,9 km/h (4 Bft) W-NW 292 5 min 8,9 C 36,4 km/h (5 Bft)
12.06.2016 16:20 17,1 C 20,6 C 58 % 1011,8 hPa 0,0 mm 23,8 km/h (4 Bft) W 270 5 min 8,8 C 22,7 km/h (4 Bft)
12.06.2016 16:25 16,6 C 19,1 C 60 % 1011,8 hPa 0,0 mm 16,4 km/h (3 Bft) W 270 0 min 8,8 C 13,7 km/h (3 Bft)
12.06.2016 16:30 16,4 C 18,5 C 59 % 1011,8 hPa 0,0 mm 13,1 km/h (3 Bft) W 270 0 min 8,4 C 40,5 km/h (6 Bft)
12.06.2016 16:35 16,4 C 18,0 C 59 % 1012,0 hPa 0,0 mm 12,8 km/h (3 Bft) NW 315 0 min 8,4 C 17,9 km/h (3 Bft)
12.06.2016 16:40 16,4 C 18,0 C 60 % 1012,0 hPa 0,0 mm 13,4 km/h (3 Bft) W-SW 247 0 min 8,6 C 18,8 km/h (3 Bft)
12.06.2016 16:45 16,5 C 18,2 C 60 % 1012,0 hPa 0,0 mm 12,8 km/h (3 Bft) NO 45 0 min 8,7 C 13,1 km/h (3 Bft)
12.06.2016 16:50 16,7 C 18,6 C 60 % 1012,0 hPa 0,0 mm 12,8 km/h (3 Bft) O-NO 67 0 min 8,9 C 11,9 km/h (2 Bft)
12.06.2016 16:55 16,8 C 19,0 C 60 % 1012,3 hPa 0,0 mm 14,0 km/h (3 Bft) W 270 0 min 9,0 C 20,0 km/h (4 Bft)
12.06.2016 17:00 16,8 C 19,0 C 59 % 1012,3 hPa 0,0 mm 15,5 km/h (3 Bft) SW 225 0 min 8,7 C 22,7 km/h (4 Bft)
12.06.2016 17:05 16,6 C 18,7 C 60 % 1012,3 hPa 0,0 mm 18,2 km/h (3 Bft) NW 315 0 min 8,8 C 25,9 km/h (4 Bft)
12.06.2016 17:10 16,8 C 18,9 C 60 % 1012,3 hPa 0,0 mm 17,0 km/h (3 Bft) W-NW 292 0 min 9,0 C 22,7 km/h (4 Bft)
12.06.2016 17:15 17,1 C 19,3 C 59 % 1011,6 hPa 0,0 mm 17,0 km/h (3 Bft) S-SW 202 0 min 9,0 C 22,4 km/h (4 Bft)
12.06.2016 17:20 17,1 C 19,1 C 59 % 1011,6 hPa 0,0 mm 18,5 km/h (3 Bft) W-SW 247 0 min 9,0 C 17,9 km/h (3 Bft)
12.06.2016 17:25 16,8 C 18,7 C 58 % 1011,6 hPa 0,0 mm 17,9 km/h (3 Bft) W-NW 292 0 min 8,5 C 61,7 km/h (7 Bft)
12.06.2016 17:30 16,4 C 18,2 C 58 % 1011,6 hPa 0,0 mm 18,5 km/h (3 Bft) W-SW 247 0 min 8,1 C 20,3 km/h (4 Bft)
12.06.2016 17:35 16,2 C 17,8 C 59 % 1011,6 hPa 0,0 mm 16,1 km/h (3 Bft) NW 315 0 min 8,2 C 17,3 km/h (3 Bft)
12.06.2016 17:40 16,0 C 17,5 C 60 % 1011,6 hPa 0,0 mm 15,2 km/h (3 Bft) W-SW 247 0 min 8,2 C 24,7 km/h (4 Bft)
12.06.2016 17:45 16,1 C 17,6 C 60 % 1011,6 hPa 0,0 mm 15,8 km/h (3 Bft) W-NW 292 0 min 8,3 C 25,3 km/h (4 Bft)
12.06.2016 17:50 16,2 C 17,5 C 61 % 1011,6 hPa 0,0 mm 13,4 km/h (3 Bft) S 180 0 min 8,7 C 16,7 km/h (3 Bft)
12.06.2016 17:51 16,2 C 17,7 C 61 % 1011,6 hPa 0,0 mm 11,6 km/h (2 Bft) S 180 0 min 8,7 C 13,1 km/h (3 Bft)
12.06.2016 17:56 16,2 C 17,7 C 61 % 1011,6 hPa 0,0 mm 11,6 km/h (2 Bft) S 180 0 min 8,7 C 13,1 km/h (3 Bft)
12.06.2016 18:00 16,2 C 17,7 C 61 % 1011,6 hPa 0,0 mm 11,0 km/h (2 Bft) W-SW 247 0 min 8,7 C 13,7 km/h (3 Bft)
12.06.2016 18:05 16,0 C 17,5 C 61 % 1011,6 hPa 0,0 mm 12,5 km/h (3 Bft) W-NW 292 0 min 8,5 C 13,4 km/h (3 Bft)
12.06.2016 18:10 15,8 C 17,2 C 63 % 1011,6 hPa 0,0 mm 12,2 km/h (2 Bft) SO 135 0 min 8,8 C 8,3 km/h (2 Bft)
12.06.2016 18:15 15,6 C 16,7 C 63 % 1011,5 hPa 0,0 mm 11,3 km/h (2 Bft) N 360 0 min 8,6 C 24,4 km/h (4 Bft)
12.06.2016 18:20 15,4 C 16,5 C 63 % 1011,5 hPa 0,0 mm 9,5 km/h (2 Bft) W-NW 292 0 min 8,4 C 14,3 km/h (3 Bft)
12.06.2016 18:25 15,2 C 16,2 C 64 % 1011,5 hPa 0,0 mm 7,5 km/h (2 Bft) SO 135 0 min 8,4 C 15,5 km/h (3 Bft)
12.06.2016 18:30 15,2 C 16,1 C 64 % 1011,5 hPa 0,0 mm 7,7 km/h (2 Bft) W-SW 247 0 min 8,4 C 18,5 km/h (3 Bft)
12.06.2016 18:35 15,2 C 16,0 C 64 % 1011,5 hPa 0,0 mm 9,5 km/h (2 Bft) NW 315 0 min 8,4 C 6,9 km/h (2 Bft)
12.06.2016 18:40 15,2 C 16,0 C 65 % 1011,5 hPa 0,0 mm 9,5 km/h (2 Bft) NW 315 0 min 8,7 C 11,3 km/h (2 Bft)
12.06.2016 18:45 15,3 C 16,2 C 65 % 1011,5 hPa 0,0 mm 8,9 km/h (2 Bft) NW 315 0 min 8,8 C 23,8 km/h (4 Bft)
12.06.2016 18:50 15,4 C 16,5 C 65 % 1011,5 hPa 0,0 mm 10,4 km/h (2 Bft) W-SW 247 0 min 8,9 C 7,2 km/h (2 Bft)
12.06.2016 18:55 15,7 C 17,7 C 65 % 1011,4 hPa 0,0 mm 11,0 km/h (2 Bft) W 270 0 min 9,1 C 16,1 km/h (3 Bft)
12.06.2016 19:00 15,9 C 18,9 C 64 % 1011,4 hPa 0,0 mm 9,8 km/h (2 Bft) SW 225 0 min 9,1 C 13,4 km/h (3 Bft)
12.06.2016 19:05 16,0 C 19,5 C 62 % 1011,4 hPa 0,0 mm 9,5 km/h (2 Bft) O-SO 112 5 min 8,7 C 18,2 km/h (3 Bft)
12.06.2016 19:10 16,1 C 19,6 C 62 % 1011,4 hPa 0,0 mm 8,9 km/h (2 Bft) N-NO 22 5 min 8,8 C 4,2 km/h (1 Bft)
12.06.2016 19:15 16,1 C 19,8 C 62 % 1011,2 hPa 0,0 mm 6,3 km/h (2 Bft) W 270 5 min 8,8 C 14,0 km/h (3 Bft)
12.06.2016 19:20 16,0 C 19,7 C 61 % 1011,2 hPa 0,0 mm 6,0 km/h (2 Bft) W-SW 247 5 min 8,5 C 5,7 km/h (1 Bft)
12.06.2016 19:25 15,7 C 17,9 C 62 % 1011,2 hPa 0,0 mm 8,9 km/h (2 Bft) W 270 0 min 8,4 C 7,5 km/h (2 Bft)
12.06.2016 19:30 15,6 C 17,1 C 62 % 1011,2 hPa 0,0 mm 8,6 km/h (2 Bft) W-NW 292 0 min 8,3 C 9,8 km/h (2 Bft)
12.06.2016 19:35 15,4 C 16,3 C 62 % 1011,2 hPa 0,0 mm 7,7 km/h (2 Bft) W 270 0 min 8,2 C 11,6 km/h (2 Bft)
12.06.2016 19:40 15,3 C 16,2 C 62 % 1011,2 hPa 0,0 mm 8,3 km/h (2 Bft) W-SW 247 0 min 8,1 C 16,4 km/h (3 Bft)
12.06.2016 19:45 15,3 C 15,8 C 63 % 1011,2 hPa 0,0 mm 7,5 km/h (2 Bft) W 270 0 min 8,3 C 10,7 km/h (2 Bft)
12.06.2016 19:50 15,2 C 15,7 C 63 % 1011,2 hPa 0,0 mm 7,7 km/h (2 Bft) W 270 0 min 8,2 C 10,1 km/h (2 Bft)
12.06.2016 19:55 15,2 C 15,6 C 63 % 1011,1 hPa 0,0 mm 8,0 km/h (2 Bft) W 270 0 min 8,2 C 21,2 km/h (4 Bft)
12.06.2016 20:00 15,1 C 15,4 C 63 % 1011,1 hPa 0,0 mm 8,3 km/h (2 Bft) W-SW 247 0 min 8,1 C 8,9 km/h (2 Bft)
12.06.2016 20:05 15,0 C 15,1 C 64 % 1011,1 hPa 0,0 mm 9,2 km/h (2 Bft) W-SW 247 0 min 8,2 C 9,8 km/h (2 Bft)
12.06.2016 20:10 14,9 C 15,0 C 65 % 1011,1 hPa 0,0 mm 8,0 km/h (2 Bft) N-NW 337 0 min 8,4 C 3,3 km/h (1 Bft)
12.06.2016 20:15 14,7 C 15,0 C 65 % 1011,3 hPa 0,0 mm 8,0 km/h (2 Bft) N-NW 337 0 min 8,2 C 3,3 km/h (1 Bft)
12.06.2016 20:20 14,6 C 14,7 C 65 % 1011,3 hPa 0,0 mm 6,9 km/h (2 Bft) N-NW 337 0 min 8,1 C 9,5 km/h (2 Bft)
12.06.2016 20:25 14,5 C 14,6 C 66 % 1011,3 hPa 0,0 mm 6,6 km/h (2 Bft) W-SW 247 0 min 8,2 C 7,5 km/h (2 Bft)
12.06.2016 20:30 14,5 C 14,5 C 66 % 1011,3 hPa 0,0 mm 7,5 km/h (2 Bft) NW 315 0 min 8,2 C 9,5 km/h (2 Bft)
12.06.2016 20:35 14,4 C 14,4 C 66 % 1011,4 hPa 0,0 mm 7,5 km/h (2 Bft) S 180 0 min 8,1 C 7,2 km/h (2 Bft)
12.06.2016 20:40 14,4 C 14,4 C 66 % 1011,4 hPa 0,0 mm 8,0 km/h (2 Bft) W-SW 247 0 min 8,1 C 10,1 km/h (2 Bft)
12.06.2016 20:45 14,3 C 14,2 C 67 % 1011,4 hPa 0,0 mm 6,9 km/h (2 Bft) W 270 0 min 8,3 C 17,6 km/h (3 Bft)
12.06.2016 20:50 14,2 C 14,2 C 67 % 1011,4 hPa 0,0 mm 6,6 km/h (2 Bft) S-SW 202 0 min 8,2 C 6,0 km/h (2 Bft)
12.06.2016 20:55 14,2 C 14,2 C 67 % 1011,3 hPa 0,0 mm 5,4 km/h (1 Bft) NO 45 0 min 8,2 C 0,0 km/h (0 Bft)
12.06.2016 20:57 14,2 C 14,1 C 68 % 1011,3 hPa 0,0 mm 5,4 km/h (1 Bft) NO 45 0 min 8,4 C 0,0 km/h (0 Bft)
12.06.2016 21:00 14,2 C 14,1 C 68 % 1011,3 hPa 0,0 mm 5,4 km/h (1 Bft) NO 45 0 min 8,4 C 0,0 km/h (0 Bft)
12.06.2016 21:05 14,1 C 14,0 C 68 % 1011,3 hPa 0,0 mm 3,6 km/h (1 Bft) W-SW 247 0 min 8,3 C 4,5 km/h (1 Bft)
12.06.2016 21:10 14,1 C 13,9 C 68 % 1011,3 hPa 0,0 mm 3,6 km/h (1 Bft) W-SW 247 0 min 8,3 C 4,5 km/h (1 Bft)
12.06.2016 21:15 14,0 C 13,9 C 68 % 1011,4 hPa 0,0 mm 3,9 km/h (1 Bft) S 180 0 min 8,2 C 0,0 km/h (0 Bft)
12.06.2016 21:20 14,0 C 13,9 C 68 % 1011,4 hPa 0,0 mm 4,5 km/h (1 Bft) W-SW 247 0 min 8,2 C 0,0 km/h (0 Bft)
12.06.2016 21:25 14,0 C 13,8 C 68 % 1011,4 hPa 0,0 mm 4,2 km/h (1 Bft) SW 225 0 min 8,2 C 0,0 km/h (0 Bft)
12.06.2016 21:30 13,9 C 13,8 C 69 % 1011,4 hPa 0,0 mm 4,2 km/h (1 Bft) SW 225 0 min 8,3 C 0,0 km/h (0 Bft)
12.06.2016 21:35 13,8 C 13,6 C 69 % 1011,5 hPa 0,0 mm 1,2 km/h (1 Bft) SW 225 0 min 8,2 C 0,0 km/h (0 Bft)
12.06.2016 21:40 13,8 C 13,6 C 69 % 1011,5 hPa 0,0 mm 0,9 km/h (0 Bft) S 180 0 min 8,2 C 0,0 km/h (0 Bft)
12.06.2016 21:45 13,7 C 13,5 C 69 % 1011,5 hPa 0,0 mm 0,9 km/h (0 Bft) S 180 0 min 8,1 C 0,0 km/h (0 Bft)
12.06.2016 21:50 13,7 C 13,5 C 69 % 1011,5 hPa 0,0 mm 1,8 km/h (1 Bft) W-NW 292 0 min 8,1 C 4,5 km/h (1 Bft)
12.06.2016 21:55 13,7 C 13,6 C 70 % 1011,6 hPa 0,0 mm 3,3 km/h (1 Bft) W 270 0 min 8,3 C 0,0 km/h (0 Bft)
12.06.2016 22:00 13,7 C 13,6 C 70 % 1011,6 hPa 0,0 mm 4,2 km/h (1 Bft) S 180 0 min 8,3 C 22,4 km/h (4 Bft)
12.06.2016 22:05 13,8 C 13,7 C 70 % 1011,6 hPa 0,0 mm 7,5 km/h (2 Bft) W 270 0 min 8,4 C 11,6 km/h (2 Bft)
12.06.2016 22:10 13,8 C 13,6 C 69 % 1011,6 hPa 0,0 mm 7,5 km/h (2 Bft) W 270 0 min 8,2 C 11,6 km/h (2 Bft)
12.06.2016 22:15 13,8 C 13,6 C 70 % 1011,6 hPa 0,0 mm 3,3 km/h (1 Bft) S 180 0 min 8,4 C 0,0 km/h (0 Bft)
12.06.2016 22:20 13,7 C 13,6 C 70 % 1011,6 hPa 0,0 mm 2,7 km/h (1 Bft) W 270 0 min 8,3 C 0,0 km/h (0 Bft)
12.06.2016 22:25 13,7 C 13,6 C 70 % 1011,6 hPa 0,0 mm 3,9 km/h (1 Bft) W-SW 247 0 min 8,3 C 8,3 km/h (2 Bft)
12.06.2016 22:30 13,8 C 13,7 C 69 % 1011,6 hPa 0,0 mm 6,0 km/h (2 Bft) W-NW 292 0 min 8,2 C 10,1 km/h (2 Bft)
12.06.2016 22:35 13,8 C 13,6 C 69 % 1011,7 hPa 0,0 mm 8,9 km/h (2 Bft) W 270 0 min 8,2 C 10,1 km/h (2 Bft)
12.06.2016 22:40 13,6 C 13,0 C 70 % 1011,7 hPa 0,0 mm 9,2 km/h (2 Bft) NW 315 0 min 8,2 C 10,4 km/h (2 Bft)
12.06.2016 22:45 13,2 C 12,5 C 71 % 1011,7 hPa 0,0 mm 4,8 km/h (1 Bft) W-SW 247 0 min 8,1 C 0,0 km/h (0 Bft)
12.06.2016 22:50 13,0 C 12,3 C 72 % 1011,7 hPa 0,0 mm 2,1 km/h (1 Bft) W 270 0 min 8,1 C 0,0 km/h (0 Bft)
12.06.2016 22:55 12,9 C 12,3 C 74 % 1011,7 hPa 0,0 mm 0,6 km/h (0 Bft) SW 225 0 min 8,4 C 0,0 km/h (0 Bft)
12.06.2016 23:00 12,8 C 12,2 C 74 % 1011,7 hPa 0,0 mm 0,6 km/h (0 Bft) W-SW 247 0 min 8,3 C 0,0 km/h (0 Bft)
12.06.2016 23:05 12,8 C 12,2 C 75 % 1011,7 hPa 0,0 mm 0,0 km/h (0 Bft) W 270 0 min 8,5 C 0,0 km/h (0 Bft)
12.06.2016 23:10 12,8 C 12,2 C 75 % 1011,7 hPa 0,0 mm 0,6 km/h (0 Bft) W-SW 247 0 min 8,5 C 5,4 km/h (1 Bft)
12.06.2016 23:15 12,9 C 12,4 C 75 % 1011,6 hPa 0,0 mm 2,1 km/h (1 Bft) S 180 0 min 8,6 C 8,3 km/h (2 Bft)
12.06.2016 23:20 12,9 C 12,4 C 75 % 1011,6 hPa 0,0 mm 3,3 km/h (1 Bft) O-SO 112 0 min 8,6 C 4,5 km/h (1 Bft)
12.06.2016 23:25 12,9 C 12,3 C 75 % 1011,6 hPa 0,0 mm 3,0 km/h (1 Bft) S 180 0 min 8,6 C 0,0 km/h (0 Bft)
12.06.2016 23:30 12,9 C 12,2 C 75 % 1011,6 hPa 0,0 mm 2,4 km/h (1 Bft) NW 315 0 min 8,6 C 0,0 km/h (0 Bft)
12.06.2016 23:35 12,9 C 12,3 C 75 % 1011,6 hPa 0,0 mm 2,4 km/h (1 Bft) NW 315 0 min 8,6 C 0,0 km/h (0 Bft)
12.06.2016 23:40 12,9 C 12,3 C 75 % 1011,6 hPa 0,0 mm 2,4 km/h (1 Bft) NW 315 0 min 8,6 C 0,0 km/h (0 Bft)
12.06.2016 23:45 13,0 C 12,5 C 75 % 1011,6 hPa 0,0 mm 1,8 km/h (1 Bft) NW 315 0 min 8,7 C 3,0 km/h (1 Bft)
12.06.2016 23:50 12,9 C 12,6 C 75 % 1011,6 hPa 0,0 mm 0,9 km/h (0 Bft) N-NW 337 0 min 8,6 C 0,0 km/h (0 Bft)
12.06.2016 23:55 12,9 C 12,6 C 75 % 1011,4 hPa 0,0 mm 0,9 km/h (0 Bft) N-NW 337 0 min 8,6 C 0,0 km/h (0 Bft)
12.06.2016 23:56 12,9 C 12,7 C 75 % 1011,4 hPa 0,0 mm 1,2 km/h (1 Bft) SW 225 0 min 8,6 C 0,0 km/h (0 Bft)
12.06.2016 23:58 12,9 C 12,7 C 75 % 1011,4 hPa 0,0 mm 1,2 km/h (1 Bft) SW 225 0 min 8,6 C 0,0 km/h (0 Bft)
_ Min-Zeit 03:00 06:00 13:45 20:10 - 23:05 - - - 02:35 23:58
Minimum _ 10,4 C 7,2 C 53 % 1011,1 hPa - 0,0 km/h (0 Bft) - - - 6,9 C 0,0 km/h (0 Bft)
_ Max-Zeit 13:50 13:55 06:40 00:10 03:15 16:15 - - 19:20 09:00 17:25
Maximum _ 20,6 C 25,1 C 85 % 1013,6 hPa 0,7 mm 25,9 km/h
W-NW (4 Bft)
- - 5 min 11,8 C 61,7 km/h
W-NW (7 Bft)
Durchschnitt _ 14,4 C 14,6 C 70 % 1012,3 hPa #0,7 mm 5,9 km/h (2 Bft) W - #3:50 h 9,0 C 8,3 km/h (2 Bft)